Time;durP1;ratioP1;P1;durP2;ratioP2;P2;SDS_P1;SDS_P2;PMS_P1;PMS_P2;Temp;Humidity;BMP_temperature;BMP_pressure;BME280_temperature;BME280_humidity;BME280_pressure;Samples;Min_cycle;Max_cycle;Signal;HPM_P1;HPM_P2
2023/12/02 00:00:21;;;;;;;9.27;2.35;;;;;;;12.92;94.54;92498.44;5050154;28;20055;-76
2023/12/02 00:02:48;;;;;;;10.90;4.00;;;;;;;12.87;94.94;92501.72;5050326;28;20048;-76
2023/12/02 00:05:15;;;;;;;8.20;3.50;;;;;;;12.90;94.62;92505.59;5047875;28;20053;-77
2023/12/02 00:07:43;;;;;;;9.95;2.67;;;;;;;12.88;94.61;92511.03;5054253;28;20059;-77
2023/12/02 00:10:11;;;;;;;13.55;4.88;;;;;;;12.90;94.74;92511.56;5050988;28;20059;-77
2023/12/02 00:12:38;;;;;;;6.82;3.33;;;;;;;12.80;94.78;92503.69;5047898;28;20055;-76
2023/12/02 00:15:07;;;;;;;6.75;2.60;;;;;;;12.89;94.79;92499.69;5047526;28;20441;-77
2023/12/02 00:17:34;;;;;;;7.13;3.15;;;;;;;12.84;95.14;92497.06;5052235;28;20049;-76
2023/12/02 00:20:00;;;;;;;6.93;2.05;;;;;;;12.67;95.62;92468.75;5047750;28;20059;-77
2023/12/02 00:22:27;;;;;;;7.75;2.20;;;;;;;12.64;95.46;92464.88;5046921;28;20409;-76
2023/12/02 00:24:56;;;;;;;6.15;2.67;;;;;;;12.70;95.24;92455.41;5047271;28;20613;-77
2023/12/02 00:27:23;;;;;;;9.85;3.45;;;;;;;12.69;95.42;92472.66;5057045;28;20055;-77
2023/12/02 00:29:50;;;;;;;7.28;2.60;;;;;;;12.73;95.72;92480.69;5048608;28;20063;-76
2023/12/02 00:32:17;;;;;;;11.32;2.63;;;;;;;12.76;95.54;92498.25;5066606;28;20052;-76
2023/12/02 00:34:44;;;;;;;6.38;2.20;;;;;;;12.78;94.97;92490.28;5065179;28;20044;-76
2023/12/02 00:37:11;;;;;;;11.15;2.55;;;;;;;12.81;95.19;92472.53;5060401;28;20040;-77
2023/12/02 00:39:37;;;;;;;9.68;2.30;;;;;;;12.87;94.04;92475.94;5054014;28;20425;-77
2023/12/02 00:42:06;;;;;;;6.25;2.28;;;;;;;12.92;92.60;92491.47;5051002;28;20048;-76
2023/12/02 00:44:33;;;;;;;5.90;2.22;;;;;;;13.01;91.93;92475.56;5052257;28;20041;-75
2023/12/02 00:47:00;;;;;;;6.60;1.98;;;;;;;13.07;91.26;92472.81;5057233;28;20055;-77
2023/12/02 00:49:27;;;;;;;6.60;2.65;;;;;;;13.10;91.14;92482.63;5050990;28;20049;-76
2023/12/02 00:51:54;;;;;;;7.20;2.30;;;;;;;13.07;91.24;92470.25;5068183;28;20056;-76
2023/12/02 00:54:21;;;;;;;6.80;3.00;;;;;;;13.06;90.74;92462.75;5051833;28;20045;-77
2023/12/02 00:56:47;;;;;;;7.80;2.60;;;;;;;13.19;90.22;92469.31;5060431;28;20154;-77
2023/12/02 00:59:16;;;;;;;4.97;2.40;;;;;;;13.19;89.99;92470.06;5053674;28;20048;-77
2023/12/02 01:01:43;;;;;;;7.63;2.15;;;;;;;13.18;90.00;92465.94;5050701;28;20052;-77
2023/12/02 01:04:10;;;;;;;7.38;3.88;;;;;;;13.24;89.55;92471.91;5050714;28;20045;-77
2023/12/02 01:06:37;;;;;;;6.43;2.72;;;;;;;12.86;89.51;92434.97;5050076;28;20086;-76
2023/12/02 01:09:04;;;;;;;7.10;2.50;;;;;;;13.16;89.85;92490.41;5045225;28;20498;-77
2023/12/02 01:11:31;;;;;;;7.15;2.15;;;;;;;13.16;89.74;92493.78;5043398;28;20048;-76
2023/12/02 01:13:58;;;;;;;9.65;3.05;;;;;;;13.14;90.04;92487.31;5044104;28;20532;-77
2023/12/02 01:16:26;;;;;;;6.53;2.30;;;;;;;13.15;90.24;92484.47;5050960;28;20060;-78
2023/12/02 01:18:53;;;;;;;4.85;1.70;;;;;;;13.15;89.78;92468.25;5066930;28;20512;-76
2023/12/02 01:21:20;;;;;;;4.47;1.38;;;;;;;13.13;90.00;92452.22;5052604;28;20063;-76
2023/12/02 01:23:47;;;;;;;9.45;3.80;;;;;;;13.07;89.67;92441.09;5066507;28;20055;-77
2023/12/02 01:26:14;;;;;;;9.82;2.97;;;;;;;13.09;89.83;92444.19;5049902;28;20858;-77
2023/12/02 01:28:39;;;;;;;8.32;2.22;;;;;;;13.07;89.86;92447.03;5055738;28;20056;-77
2023/12/02 01:31:07;;;;;;;9.00;3.22;;;;;;;13.11;90.00;92467.94;5055992;28;20063;-77
2023/12/02 01:33:35;;;;;;;8.13;2.90;;;;;;;13.05;89.66;92466.34;5051307;28;20040;-76
2023/12/02 01:36:02;;;;;;;7.93;3.00;;;;;;;13.13;89.85;92485.72;5051453;28;20495;-78
2023/12/02 01:38:29;;;;;;;9.32;2.03;;;;;;;13.10;89.24;92466.38;5049746;28;20055;-77
2023/12/02 01:40:56;;;;;;;7.50;2.05;;;;;;;13.15;89.14;92432.13;5053601;28;20045;-77
2023/12/02 01:43:25;;;;;;;6.22;2.20;;;;;;;13.13;89.65;92434.16;5048930;28;20049;-79
2023/12/02 01:45:52;;;;;;;4.78;1.60;;;;;;;13.08;89.64;92422.00;5050055;28;20059;-77
2023/12/02 01:48:20;;;;;;;8.82;2.72;;;;;;;13.12;89.60;92432.63;5061302;28;20156;-77
2023/12/02 01:50:49;;;;;;;8.15;2.20;;;;;;;13.05;90.24;92423.28;5049525;28;20049;-76
2023/12/02 01:53:16;;;;;;;7.78;1.98;;;;;;;12.98;89.77;92412.38;5051276;28;20524;-78
2023/12/02 01:55:44;;;;;;;5.32;2.13;;;;;;;13.10;89.28;92432.84;5049737;28;20055;-77
2023/12/02 01:58:11;;;;;;;5.72;2.33;;;;;;;13.19;89.07;92446.09;5052012;28;20128;-78
2023/12/02 02:00:38;;;;;;;4.35;1.92;;;;;;;13.21;88.79;92441.47;5049393;28;20405;-80
2023/12/02 02:03:05;;;;;;;8.82;2.83;;;;;;;13.22;88.48;92446.38;5049157;28;20576;-78
2023/12/02 02:05:32;;;;;;;4.10;1.40;;;;;;;13.31;86.81;92444.16;5049318;28;20473;-78
2023/12/02 02:08:01;;;;;;;6.07;2.15;;;;;;;13.45;86.83;92446.31;5054157;28;20141;-79
2023/12/02 02:10:28;;;;;;;5.40;1.85;;;;;;;13.28;87.19;92449.00;5065731;28;20131;-78
2023/12/02 02:12:54;;;;;;;7.55;2.63;;;;;;;13.39;86.98;92439.56;5059328;28;20514;-76
2023/12/02 02:15:21;;;;;;;9.95;2.30;;;;;;;13.29;86.42;92442.81;5056545;28;20057;-76
2023/12/02 02:17:48;;;;;;;3.72;1.38;;;;;;;13.20;87.34;92434.75;5050759;28;20045;-76
2023/12/02 02:20:15;;;;;;;7.18;2.40;;;;;;;13.30;86.62;92452.13;5050672;28;20063;-75
2023/12/02 02:22:44;;;;;;;6.43;1.98;;;;;;;13.26;87.49;92436.34;5049497;28;20410;-75
2023/12/02 02:25:11;;;;;;;5.95;2.30;;;;;;;13.33;87.44;92442.09;5049387;28;20051;-74
2023/12/02 02:27:38;;;;;;;7.30;2.30;;;;;;;13.36;87.10;92453.72;5049061;28;20063;-75
2023/12/02 02:30:06;;;;;;;5.90;1.90;;;;;;;13.40;86.38;92451.41;5048743;28;20053;-75
2023/12/02 02:32:33;;;;;;;8.80;2.83;;;;;;;13.32;86.57;92440.53;5048586;28;20418;-75
2023/12/02 02:34:59;;;;;;;5.18;1.75;;;;;;;13.44;86.28;92449.91;5050631;28;20135;-75
2023/12/02 02:37:26;;;;;;;7.03;1.48;;;;;;;13.47;86.11;92429.59;5049300;28;20056;-75
2023/12/02 02:39:55;;;;;;;6.00;1.98;;;;;;;13.39;86.56;92426.66;5048438;28;20055;-75
2023/12/02 02:42:22;;;;;;;8.55;1.70;;;;;;;13.43;86.29;92425.16;5058773;28;20524;-75
2023/12/02 02:44:48;;;;;;;5.95;2.00;;;;;;;13.39;86.74;92432.59;5048617;28;20055;-75
2023/12/02 02:47:15;;;;;;;4.35;1.83;;;;;;;13.34;87.38;92430.75;5048153;28;20126;-74
2023/12/02 02:49:42;;;;;;;7.78;2.58;;;;;;;13.23;87.80;92418.78;5051559;28;20051;-75
2023/12/02 02:52:09;;;;;;;9.93;2.63;;;;;;;13.23;87.67;92424.72;5048521;28;20053;-76
2023/12/02 02:54:36;;;;;;;5.57;2.30;;;;;;;13.28;88.23;92423.22;5050760;28;20051;-76
2023/12/02 02:57:05;;;;;;;4.95;2.00;;;;;;;13.25;88.31;92421.13;5049930;28;20044;-76
2023/12/02 02:59:32;;;;;;;6.45;1.92;;;;;;;13.21;88.24;92426.00;5048211;28;20048;-79
2023/12/02 03:01:59;;;;;;;5.82;1.85;;;;;;;13.18;88.30;92419.53;5048255;28;20045;-77
2023/12/02 03:04:26;;;;;;;4.00;1.85;;;;;;;13.12;88.83;92411.97;5056438;28;20067;-79
2023/12/02 03:06:53;;;;;;;6.45;1.33;;;;;;;13.15;88.39;92422.59;5047852;28;20051;-77
2023/12/02 03:09:21;;;;;;;3.03;1.48;;;;;;;12.89;88.97;92372.59;5054913;28;20088;-77
2023/12/02 03:11:49;;;;;;;4.20;2.03;;;;;;;13.17;88.86;92420.56;5049810;28;20088;-77
2023/12/02 03:14:17;;;;;;;4.78;1.75;;;;;;;12.93;88.98;92389.16;5052231;28;20044;-76
2023/12/02 03:16:44;;;;;;;4.95;1.83;;;;;;;13.20;88.85;92420.06;5056900;28;20059;-78
2023/12/02 03:19:11;;;;;;;4.47;2.00;;;;;;;13.14;88.88;92420.28;5056918;28;20044;-77
2023/12/02 03:21:38;;;;;;;6.13;1.77;;;;;;;13.12;88.92;92406.81;5052959;28;20502;-77
2023/12/02 03:24:05;;;;;;;7.28;2.17;;;;;;;13.17;89.11;92401.72;5054989;28;20036;-77
2023/12/02 03:26:34;;;;;;;8.50;4.70;;;;;;;13.20;89.18;92408.97;5058180;28;20084;-78
2023/12/02 03:29:01;;;;;;;5.20;1.80;;;;;;;13.19;89.40;92408.19;5055823;28;20070;-78
2023/12/02 03:31:30;;;;;;;4.60;1.85;;;;;;;13.20;89.38;92407.16;5052742;28;20048;-78
2023/12/02 03:33:57;;;;;;;9.68;2.90;;;;;;;13.17;89.63;92404.28;5049507;28;20055;-78
2023/12/02 03:36:24;;;;;;;7.60;2.00;;;;;;;13.10;89.71;92399.31;5047761;28;20071;-78
2023/12/02 03:38:51;;;;;;;7.03;2.13;;;;;;;13.12;90.16;92415.34;5048651;28;20049;-78
2023/12/02 03:41:18;;;;;;;7.65;2.08;;;;;;;13.00;89.95;92397.44;5059302;28;20118;-78
2023/12/02 03:43:45;;;;;;;3.78;1.70;;;;;;;13.06;90.57;92404.19;5056005;28;20049;-78
2023/12/02 03:46:12;;;;;;;5.90;1.90;;;;;;;13.01;90.26;92393.09;5057530;28;20477;-78
2023/12/02 03:48:40;;;;;;;9.05;1.60;;;;;;;13.06;90.02;92413.75;5048858;28;20048;-78
2023/12/02 03:51:08;;;;;;;5.82;2.10;;;;;;;13.09;90.05;92418.41;5053185;28;20056;-77
2023/12/02 03:53:36;;;;;;;5.38;1.98;;;;;;;12.88;90.02;92405.34;5049007;28;20048;-78
2023/12/02 03:56:03;;;;;;;7.63;1.90;;;;;;;13.06;89.41;92419.66;5047396;28;20521;-78
2023/12/02 03:58:30;;;;;;;7.85;2.03;;;;;;;13.12;89.97;92417.13;5049068;28;20056;-78
2023/12/02 04:00:58;;;;;;;6.38;2.20;;;;;;;13.20;89.04;92420.06;5049289;28;20853;-77
2023/12/02 04:03:25;;;;;;;5.60;2.08;;;;;;;13.26;88.42;92425.25;5047969;28;20057;-78
2023/12/02 04:05:53;;;;;;;9.63;2.08;;;;;;;13.05;89.45;92402.66;5047175;28;20762;-77
2023/12/02 04:08:20;;;;;;;5.15;1.98;;;;;;;13.07;89.41;92397.25;5053988;28;20049;-78
2023/12/02 04:10:47;;;;;;;4.68;1.60;;;;;;;13.23;89.04;92406.69;5047997;28;20662;-79
2023/12/02 04:13:14;;;;;;;4.82;1.80;;;;;;;13.12;89.28;92406.81;5049557;28;20053;-79
2023/12/02 04:15:42;;;;;;;5.15;1.90;;;;;;;13.04;89.60;92390.78;5056361;28;20049;-78
2023/12/02 04:18:08;;;;;;;6.45;2.58;;;;;;;13.04;89.37;92382.25;5047396;28;20053;-78
2023/12/02 04:20:35;;;;;;;5.30;2.08;;;;;;;13.11;89.18;92382.88;5047328;28;20087;-78
2023/12/02 04:23:04;;;;;;;4.00;1.60;;;;;;;12.83;90.15;92380.28;5051474;28;20049;-78
2023/12/02 04:25:31;;;;;;;4.70;1.40;;;;;;;12.70;90.25;92367.81;5049214;28;20128;-78
2023/12/02 04:27:58;;;;;;;7.25;1.80;;;;;;;12.80;90.76;92380.00;5047157;28;20049;-80
2023/12/02 04:30:25;;;;;;;5.25;1.75;;;;;;;12.77;90.62;92380.50;5046985;28;20047;-79
2023/12/02 04:32:51;;;;;;;5.35;1.80;;;;;;;12.77;90.74;92375.34;5050732;28;20045;-79
2023/12/02 04:35:18;;;;;;;6.57;1.65;;;;;;;12.77;90.79;92377.94;5058174;28;20528;-77
2023/12/02 04:37:45;;;;;;;4.63;1.73;;;;;;;12.98;90.20;92371.16;5055915;28;20045;-78
2023/12/02 04:40:14;;;;;;;7.75;2.25;;;;;;;13.10;88.80;92361.44;5053139;28;20050;-75
2023/12/02 04:42:41;;;;;;;8.25;2.53;;;;;;;12.96;88.50;92355.91;5052268;28;20059;-75
2023/12/02 04:45:09;;;;;;;5.30;2.05;;;;;;;12.97;88.88;92374.75;5051629;28;20410;-76
2023/12/02 04:47:37;;;;;;;5.88;1.83;;;;;;;12.77;89.36;92363.22;5053979;28;20414;-76
2023/12/02 04:50:04;;;;;;;10.93;3.08;;;;;;;12.89;89.45;92357.94;5058717;28;20044;-76
2023/12/02 04:52:31;;;;;;;9.65;3.25;;;;;;;13.01;89.41;92365.50;5057073;28;20603;-75
2023/12/02 04:54:58;;;;;;;10.35;2.78;;;;;;;12.99;89.39;92369.34;5054078;28;20049;-75
2023/12/02 04:57:27;;;;;;;7.68;2.65;;;;;;;12.99;89.31;92372.69;5056761;28;20063;-76
2023/12/02 04:59:54;;;;;;;6.47;2.83;;;;;;;13.01;88.73;92359.56;5054896;28;20040;-76
2023/12/02 05:02:22;;;;;;;8.15;2.28;;;;;;;13.02;88.88;92374.81;5054695;28;20045;-77
2023/12/02 05:04:48;;;;;;;8.73;3.28;;;;;;;12.95;89.02;92372.41;5054449;28;20425;-76
2023/12/02 05:07:15;;;;;;;8.45;2.45;;;;;;;13.02;87.95;92368.84;5050609;28;20528;-76
2023/12/02 05:09:42;;;;;;;9.82;1.80;;;;;;;12.97;87.88;92351.56;5054030;28;20163;-77
2023/12/02 05:12:10;;;;;;;9.48;3.33;;;;;;;12.98;87.67;92332.47;5054124;28;20044;-77
2023/12/02 05:14:38;;;;;;;6.97;3.17;;;;;;;13.04;87.13;92346.19;5056350;28;20128;-77
2023/12/02 05:17:06;;;;;;;10.18;3.03;;;;;;;13.07;87.12;92335.38;5054629;28;20066;-76
2023/12/02 05:19:33;;;;;;;10.07;3.25;;;;;;;13.07;86.65;92318.13;5062201;28;20457;-75
2023/12/02 05:22:00;;;;;;;5.40;2.00;;;;;;;13.10;86.33;92330.50;5055213;28;20040;-76
2023/12/02 05:24:27;;;;;;;7.03;2.22;;;;;;;13.07;85.89;92335.38;5059922;28;20045;-75
2023/12/02 05:26:54;;;;;;;13.02;5.15;;;;;;;13.09;86.09;92341.84;5056009;28;20464;-76
2023/12/02 05:29:21;;;;;;;13.07;4.00;;;;;;;13.07;85.75;92349.06;5057540;28;20055;-75
2023/12/02 05:31:49;;;;;;;10.95;3.72;;;;;;;13.15;85.07;92347.81;5056857;28;20049;-78
2023/12/02 05:34:16;;;;;;;8.02;2.03;;;;;;;12.92;85.03;92325.72;5058259;28;20076;-79
2023/12/02 05:36:46;;;;;;;6.43;2.58;;;;;;;13.22;85.03;92356.13;5058870;28;20053;-78
2023/12/02 05:39:13;;;;;;;5.03;2.03;;;;;;;13.28;85.11;92349.19;5057425;28;20037;-79
2023/12/02 05:41:41;;;;;;;10.40;3.63;;;;;;;13.19;84.75;92332.66;5055804;28;20085;-79
2023/12/02 05:44:08;;;;;;;11.35;4.78;;;;;;;13.24;84.74;92324.91;5058629;28;20037;-77
2023/12/02 05:46:35;;;;;;;18.15;5.82;;;;;;;13.30;84.33;92323.94;5056746;28;20047;-77
2023/12/02 05:49:05;;;;;;;15.88;5.50;;;;;;;13.27;85.03;92318.50;5061010;28;20058;-77
2023/12/02 05:51:33;;;;;;;8.77;3.20;;;;;;;13.22;84.88;92314.88;5059256;28;20074;-77
2023/12/02 05:54:00;;;;;;;6.97;2.45;;;;;;;13.20;84.62;92308.41;5056509;28;20041;-77
2023/12/02 05:56:27;;;;;;;4.90;2.17;;;;;;;13.22;84.56;92298.59;5056348;28;20051;-78
2023/12/02 05:58:54;;;;;;;8.73;3.78;;;;;;;13.30;84.42;92318.00;5057138;28;20045;-78
2023/12/02 06:01:22;;;;;;;5.57;1.40;;;;;;;13.34;84.52;92330.16;5058435;28;20037;-77
2023/12/02 06:03:49;;;;;;;7.35;2.03;;;;;;;13.35;84.32;92330.94;5057107;28;20051;-77
2023/12/02 06:06:19;;;;;;;5.78;2.38;;;;;;;13.42;84.24;92348.78;5056799;28;20049;-77
2023/12/02 06:08:46;;;;;;;6.07;2.03;;;;;;;13.43;83.83;92358.06;5058091;28;20056;-76
2023/12/02 06:11:13;;;;;;;6.57;1.75;;;;;;;13.36;84.57;92351.31;5055637;28;20044;-76
2023/12/02 06:13:40;;;;;;;5.88;1.85;;;;;;;13.38;85.26;92358.78;5056585;28;20049;-76
2023/12/02 06:16:07;;;;;;;4.32;1.58;;;;;;;13.22;85.33;92356.13;5052444;28;20395;-76
2023/12/02 06:18:34;;;;;;;5.05;1.15;;;;;;;13.26;85.90;92371.09;5051321;28;20053;-77
2023/12/02 06:21:01;;;;;;;4.00;1.38;;;;;;;13.22;86.22;92363.06;5052219;28;20078;-75
2023/12/02 06:23:29;;;;;;;6.38;1.63;;;;;;;13.16;85.78;92349.38;5052149;28;20049;-76
2023/12/02 06:25:56;;;;;;;6.55;1.90;;;;;;;13.23;86.25;92359.47;5051093;28;20044;-77
2023/12/02 06:28:23;;;;;;;7.68;2.03;;;;;;;13.26;86.30;92351.25;5049794;28;20053;-76
2023/12/02 06:30:50;;;;;;;4.22;1.30;;;;;;;13.23;85.84;92360.25;5049696;28;20406;-77
2023/12/02 06:33:17;;;;;;;4.90;1.30;;;;;;;13.18;85.96;92372.31;5052057;28;20494;-76
2023/12/02 06:35:45;;;;;;;4.78;1.50;;;;;;;13.24;85.35;92371.34;5050590;28;20041;-77
2023/12/02 06:38:12;;;;;;;6.72;1.60;;;;;;;13.27;84.97;92385.53;5052825;28;20124;-76
2023/12/02 06:40:40;;;;;;;11.02;2.05;;;;;;;13.31;84.59;92379.66;5056745;28;21257;-76
2023/12/02 06:43:07;;;;;;;6.82;1.73;;;;;;;13.32;84.45;92381.22;5055150;28;20476;-76
2023/12/02 06:45:35;;;;;;;7.65;1.75;;;;;;;13.39;84.65;92373.28;5057001;28;20062;-76
2023/12/02 06:48:02;;;;;;;5.30;1.67;;;;;;;13.38;83.79;92370.94;5054771;28;20052;-76
2023/12/02 06:50:29;;;;;;;5.45;1.42;;;;;;;13.44;83.99;92390.56;5055732;28;20049;-76
2023/12/02 06:52:56;;;;;;;5.90;1.77;;;;;;;13.46;83.89;92385.94;5058881;28;20414;-76
2023/12/02 06:55:24;;;;;;;3.88;2.03;;;;;;;13.49;84.07;92378.53;5051110;28;20045;-77
2023/12/02 06:57:52;;;;;;;6.47;2.30;;;;;;;13.52;83.37;92377.22;5051634;28;20556;-77
2023/12/02 07:00:19;;;;;;;5.30;1.50;;;;;;;13.53;84.15;92372.88;5055728;28;20124;-76
2023/12/02 07:02:46;;;;;;;6.97;2.03;;;;;;;13.50;83.17;92376.72;5051621;28;20970;-77
2023/12/02 07:05:13;;;;;;;5.53;1.85;;;;;;;13.54;81.48;92371.84;5050394;28;20055;-77
2023/12/02 07:07:40;;;;;;;5.63;1.20;;;;;;;13.53;83.21;92372.88;5049462;28;20425;-76
2023/12/02 07:10:09;;;;;;;4.97;1.63;;;;;;;13.59;83.31;92377.03;5049201;28;20045;-77
2023/12/02 07:12:36;;;;;;;6.35;1.42;;;;;;;13.61;82.81;92375.75;5050117;28;20056;-76
2023/12/02 07:15:06;;;;;;;6.97;1.63;;;;;;;13.61;83.03;92355.13;5050299;28;20052;-76
2023/12/02 07:17:33;;;;;;;4.30;1.58;;;;;;;13.68;81.84;92362.63;5050332;28;20524;-76
2023/12/02 07:20:00;;;;;;;6.03;1.65;;;;;;;13.72;82.09;92355.97;5049752;28;20047;-76
2023/12/02 07:22:27;;;;;;;9.25;1.50;;;;;;;13.63;82.10;92357.44;5048995;28;20049;-76
2023/12/02 07:24:55;;;;;;;9.98;2.45;;;;;;;13.60;81.27;92370.84;5050635;28;20045;-76
2023/12/02 07:27:21;;;;;;;5.65;2.08;;;;;;;13.61;81.75;92372.41;5051558;28;20051;-76
2023/12/02 07:29:49;;;;;;;6.75;2.28;;;;;;;13.62;80.99;92379.13;5054057;28;20469;-76
2023/12/02 07:32:17;;;;;;;6.85;2.20;;;;;;;13.56;80.15;92372.38;5049252;28;20055;-77
2023/12/02 07:34:44;;;;;;;5.05;2.20;;;;;;;13.61;79.16;92377.56;5052479;28;20049;-77
2023/12/02 07:37:11;;;;;;;6.80;2.80;;;;;;;13.40;79.06;92351.59;5055320;28;20045;-76
2023/12/02 07:39:38;;;;;;;5.88;2.72;;;;;;;13.68;78.40;92372.19;5054610;28;20059;-77
2023/12/02 07:42:05;;;;;;;7.68;2.88;;;;;;;13.71;78.94;92364.72;5051053;28;20080;-77
2023/12/02 07:44:32;;;;;;;5.25;2.20;;;;;;;13.74;79.02;92360.84;5056085;28;20045;-77
2023/12/02 07:46:59;;;;;;;6.60;2.20;;;;;;;13.75;78.63;92352.09;5052298;28;20183;-77
2023/12/02 07:49:28;;;;;;;4.97;1.75;;;;;;;13.81;79.61;92351.09;5051316;28;20096;-77
2023/12/02 07:51:54;;;;;;;8.00;3.83;;;;;;;13.83;79.27;92353.41;5049988;28;20061;-77
2023/12/02 07:54:21;;;;;;;6.38;2.00;;;;;;;13.83;79.04;92361.94;5054084;28;20478;-76
2023/12/02 07:56:48;;;;;;;6.03;2.05;;;;;;;13.84;76.87;92357.56;5053115;28;20081;-77
2023/12/02 07:59:15;;;;;;;6.13;1.40;;;;;;;13.80;79.21;92362.44;5056816;28;20437;-76
2023/12/02 08:01:42;;;;;;;4.72;1.70;;;;;;;13.87;78.58;92360.41;5059393;28;20044;-77
2023/12/02 08:04:09;;;;;;;7.13;2.72;;;;;;;13.89;77.94;92365.34;5055121;28;20121;-76
2023/12/02 08:06:37;;;;;;;11.73;2.72;;;;;;;13.84;78.26;92365.31;5052737;28;20056;-77
2023/12/02 08:09:04;;;;;;;10.35;5.28;;;;;;;13.80;78.05;92375.34;5056122;28;20132;-77
2023/12/02 08:11:31;;;;;;;14.75;7.68;;;;;;;13.73;78.35;92367.03;5049995;28;20055;-76
2023/12/02 08:14:00;;;;;;;9.27;3.72;;;;;;;13.76;77.93;92371.72;5053560;28;20049;-77
2023/12/02 08:16:28;;;;;;;5.88;2.55;;;;;;;13.35;78.90;92313.66;5051366;28;20701;-77
2023/12/02 08:18:55;;;;;;;6.80;2.78;;;;;;;13.58;79.01;92342.72;5055678;28;20052;-77
2023/12/02 08:21:22;;;;;;;9.43;2.88;;;;;;;13.56;79.58;92344.75;5053321;28;20564;-77
2023/12/02 08:23:51;;;;;;;15.68;7.57;;;;;;;13.62;79.09;92333.44;5058993;28;20045;-77
2023/12/02 08:26:17;;;;;;;12.93;5.75;;;;;;;13.70;79.17;92331.44;5052601;28;20049;-77
2023/12/02 08:28:46;;;;;;;17.60;6.35;;;;;;;13.75;79.40;92321.91;5051471;28;20058;-77
2023/12/02 08:31:13;;;;;;;23.27;9.30;;;;;;;13.81;78.83;92324.50;5049349;28;20049;-77
2023/12/02 08:33:40;;;;;;;14.25;6.38;;;;;;;13.88;78.65;92331.00;5049727;28;20163;-77
2023/12/02 08:36:08;;;;;;;10.95;6.15;;;;;;;13.79;78.37;92313.66;5051809;28;20812;-77
2023/12/02 08:38:35;;;;;;;10.10;4.05;;;;;;;13.87;78.48;92320.91;5050192;28;20048;-77
2023/12/02 08:41:04;;;;;;;13.52;4.43;;;;;;;13.74;78.53;92315.19;5051954;28;20127;-76
2023/12/02 08:43:31;;;;;;;37.97;22.02;;;;;;;13.72;79.06;92306.13;5055498;28;20445;-76
2023/12/02 08:45:58;;;;;;;17.58;7.80;;;;;;;13.80;79.05;92323.72;5056688;28;20041;-76
2023/12/02 08:48:25;;;;;;;49.08;34.58;;;;;;;13.80;79.09;92331.47;5057271;28;20513;-76
2023/12/02 08:50:52;;;;;;;30.38;19.23;;;;;;;13.87;79.21;92336.41;5057927;28;20051;-76
2023/12/02 08:53:19;;;;;;;12.63;4.70;;;;;;;13.85;79.24;92339.22;5057831;28;20993;-77
2023/12/02 08:55:46;;;;;;;21.85;11.65;;;;;;;13.90;78.58;92328.16;5059648;28;20048;-76
2023/12/02 08:58:17;;;;;;;13.95;4.60;;;;;;;13.96;78.45;92329.75;5057662;28;20077;-76
2023/12/02 09:00:43;;;;;;;8.25;3.78;;;;;;;14.05;77.60;92340.34;5058574;28;20383;-76
2023/12/02 09:03:11;;;;;;;7.00;1.80;;;;;;;14.16;76.14;92328.25;5058067;28;20048;-76
2023/12/02 09:05:38;;;;;;;7.82;3.85;;;;;;;14.22;76.09;92314.34;5057319;28;20048;-76
2023/12/02 09:08:05;;;;;;;8.30;3.72;;;;;;;14.22;75.77;92324.69;5060555;28;20075;-76
2023/12/02 09:10:32;;;;;;;8.63;2.63;;;;;;;14.03;75.60;92290.78;5056890;28;20132;-77
2023/12/02 09:12:59;;;;;;;8.00;3.95;;;;;;;14.29;74.71;92309.72;5056765;28;20049;-77
2023/12/02 09:15:39;;;;;;;8.27;3.03;;;;;;;14.45;74.93;92330.41;5059901;28;20052;-77
2023/12/02 09:18:13;;;;;;;5.97;2.28;;;;;;;14.56;74.67;92329.41;5055068;28;20045;-77
2023/12/02 09:20:46;;;;;;;9.07;2.22;;;;;;;14.69;74.16;92311.84;5056419;28;20502;-77
2023/12/02 09:23:14;;;;;;;9.23;2.97;;;;;;;14.77;74.01;92302.84;5052743;28;20459;-77
2023/12/02 09:25:42;;;;;;;5.72;2.13;;;;;;;14.79;73.55;92280.88;5050341;28;20045;-77
2023/12/02 09:28:15;;;;;;;6.95;1.45;;;;;;;15.04;72.30;92286.28;5053310;28;20139;-77
2023/12/02 09:30:58;;;;;;;5.28;1.98;;;;;;;15.19;71.78;92272.56;5052443;28;20060;-77
2023/12/02 09:33:26;;;;;;;7.45;1.75;;;;;;;15.39;70.93;92279.50;5057359;28;20052;-77
2023/12/02 09:35:56;;;;;;;6.25;2.20;;;;;;;15.46;69.33;92268.91;5058087;28;20056;-77
2023/12/02 09:38:23;;;;;;;5.20;1.40;;;;;;;15.45;69.80;92267.31;5050121;28;20160;-77
2023/12/02 09:41:19;;;;;;;7.20;2.10;;;;;;;15.47;70.00;92253.06;5050031;28;20040;-77
2023/12/02 09:43:55;;;;;;;6.00;1.67;;;;;;;15.33;69.33;92249.50;5051588;28;20049;-77
2023/12/02 09:46:33;;;;;;;7.25;1.60;;;;;;;15.45;69.19;92252.59;5056773;28;20068;-76
2023/12/02 09:49:21;;;;;;;8.23;2.22;;;;;;;15.44;69.25;92239.91;5058149;28;20556;-76
2023/12/02 09:52:06;;;;;;;5.43;1.55;;;;;;;15.50;69.42;92241.44;5050046;28;20426;-77
2023/12/02 09:54:42;;;;;;;7.25;2.30;;;;;;;15.50;69.08;92228.50;5057910;28;20049;-77
2023/12/02 09:57:17;;;;;;;4.68;1.90;;;;;;;15.55;67.72;92236.25;5060326;28;20052;-77
2023/12/02 09:59:59;;;;;;;11.15;1.85;;;;;;;15.61;66.81;92230.00;5056115;28;20059;-77
2023/12/02 10:02:42;;;;;;;11.82;1.48;;;;;;;15.63;65.70;92225.34;5052404;28;20063;-77
2023/12/02 10:05:11;;;;;;;7.07;2.05;;;;;;;15.75;65.98;92225.03;5053098;28;20418;-77
2023/12/02 10:07:52;;;;;;;6.40;1.90;;;;;;;15.85;66.08;92200.91;5050297;28;20059;-77
2023/12/02 10:10:25;;;;;;;6.78;1.90;;;;;;;15.86;66.29;92191.31;5060471;28;20502;-76
2023/12/02 10:13:10;;;;;;;6.65;2.88;;;;;;;15.60;66.30;92184.44;5052334;28;20518;-77
2023/12/02 10:15:42;;;;;;;7.18;1.52;;;;;;;15.81;66.11;92212.84;5059965;28;20041;-77
2023/12/02 10:18:13;;;;;;;14.70;2.13;;;;;;;15.55;65.96;92175.94;5049365;28;20144;-77
2023/12/02 10:20:42;;;;;;;13.40;2.55;;;;;;;15.65;66.24;92188.06;5053237;28;20077;-77
2023/12/02 10:23:18;;;;;;;8.45;1.85;;;;;;;15.74;66.63;92186.47;5051099;28;20049;-77
2023/12/02 10:25:51;;;;;;;;;;;;;;;15.79;66.22;92163.16;5049749;28;20057;-76
2023/12/02 10:28:24;;;;;;;9.10;3.33;;;;;;;15.67;64.53;92158.28;5049965;28;19930;-77
2023/12/02 10:30:52;;;;;;;7.78;1.70;;;;;;;15.70;64.72;92155.16;5048684;28;20051;-77
2023/12/02 10:33:27;;;;;;;6.93;2.40;;;;;;;15.74;65.42;92140.63;5066155;28;20056;-77
2023/12/02 10:35:58;;;;;;;7.53;2.67;;;;;;;15.70;65.05;92141.44;5048791;28;20067;-77
2023/12/02 10:38:38;;;;;;;7.55;2.28;;;;;;;15.66;63.43;92133.44;5063946;28;20048;-77
2023/12/02 10:41:17;;;;;;;7.95;1.77;;;;;;;15.76;64.43;92138.56;5066705;28;20052;-77
2023/12/02 10:43:45;;;;;;;8.38;2.65;;;;;;;15.73;63.88;92144.28;5061277;28;20048;-77
2023/12/02 10:46:12;;;;;;;7.32;2.83;;;;;;;15.74;63.79;92132.09;5048484;28;20063;-77
2023/12/02 10:48:41;;;;;;;7.05;1.70;;;;;;;15.90;64.00;92133.56;5049042;28;20406;-77
2023/12/02 10:51:10;;;;;;;7.25;2.55;;;;;;;15.66;63.22;92089.44;5047743;28;20056;-77
2023/12/02 10:53:38;;;;;;;9.18;3.80;;;;;;;15.82;63.09;92117.78;5048902;28;20057;-77
2023/12/02 10:56:13;;;;;;;6.40;1.95;;;;;;;15.81;63.08;92101.50;5048773;28;20059;-78
2023/12/02 10:58:42;;;;;;;13.57;6.40;;;;;;;15.81;62.17;92108.50;5058948;28;20103;-77
2023/12/02 11:01:11;;;;;;;5.93;2.65;;;;;;;15.81;61.28;92113.66;5053368;28;20052;-78
2023/12/02 11:03:51;;;;;;;8.98;2.95;;;;;;;15.89;61.03;92116.47;5049381;28;20139;-77
2023/12/02 11:06:29;;;;;;;6.95;2.00;;;;;;;15.90;61.20;92110.25;5055180;28;20055;-78
2023/12/02 11:09:00;;;;;;;6.28;1.35;;;;;;;15.89;60.92;92108.69;5048294;28;20558;-78
2023/12/02 11:11:43;;;;;;;8.45;2.95;;;;;;;15.83;60.97;92109.78;5052797;28;20045;-77
2023/12/02 11:14:15;;;;;;;9.90;2.70;;;;;;;15.96;60.21;92112.84;5064612;28;20405;-78
2023/12/02 11:16:46;;;;;;;10.50;4.65;;;;;;;15.95;59.75;92108.69;5060413;28;20056;-78
2023/12/02 11:19:27;;;;;;;9.00;3.60;;;;;;;16.13;59.69;92107.25;5047850;28;20051;-78
2023/12/02 11:22:13;;;;;;;15.43;4.90;;;;;;;15.98;59.91;92093.38;5051685;28;20044;-78
2023/12/02 11:24:57;;;;;;;9.10;3.42;;;;;;;16.06;59.15;92112.00;5048298;28;20055;-79
2023/12/02 11:27:37;;;;;;;12.55;3.00;;;;;;;15.96;59.05;92105.84;5048922;28;20528;-78
2023/12/02 11:30:18;;;;;;;6.85;2.60;;;;;;;16.02;58.53;92115.09;5046612;28;20045;-78
2023/12/02 11:32:55;;;;;;;9.77;2.63;;;;;;;16.07;59.29;92110.94;5048011;28;20051;-78
2023/12/02 11:35:33;;;;;;;7.32;2.38;;;;;;;16.01;59.02;92110.97;5048722;28;20421;-78
2023/12/02 11:38:12;;;;;;;8.80;1.88;;;;;;;16.00;58.59;92103.47;5052109;28;20563;-78